sensor_id;sensor_type;location;lat;lon;timestamp;pressure;altitude;pressure_sealevel;temperature;humidity
17649;BME280;8943;51.110;-4.158;2023-10-19T00:00:07;97957.97;;;19.53;58.77
17649;BME280;8943;51.110;-4.158;2023-10-19T00:02:49;97956.09;;;19.54;58.62
17649;BME280;8943;51.110;-4.158;2023-10-19T00:05:25;97953.13;;;19.55;58.44
17649;BME280;8943;51.110;-4.158;2023-10-19T00:07:56;97953.13;;;19.55;58.67
17649;BME280;8943;51.110;-4.158;2023-10-19T00:10:27;97947.50;;;19.57;58.52
17649;BME280;8943;51.110;-4.158;2023-10-19T00:13:00;97939.88;;;19.54;58.81
17649;BME280;8943;51.110;-4.158;2023-10-19T00:15:31;97937.75;;;19.56;58.54
17649;BME280;8943;51.110;-4.158;2023-10-19T00:18:02;97934.00;;;19.57;58.50
17649;BME280;8943;51.110;-4.158;2023-10-19T00:20:50;97929.63;;;19.56;58.57
17649;BME280;8943;51.110;-4.158;2023-10-19T00:23:26;97922.34;;;19.56;58.51
17649;BME280;8943;51.110;-4.158;2023-10-19T00:26:01;97928.00;;;19.55;58.47
17649;BME280;8943;51.110;-4.158;2023-10-19T00:29:00;97918.28;;;19.54;58.55
17649;BME280;8943;51.110;-4.158;2023-10-19T00:31:56;97916.63;;;19.53;58.49
17649;BME280;8943;51.110;-4.158;2023-10-19T00:34:34;97926.38;;;19.54;58.62
17649;BME280;8943;51.110;-4.158;2023-10-19T00:37:07;97916.38;;;19.54;58.45
17649;BME280;8943;51.110;-4.158;2023-10-19T00:39:38;97907.94;;;19.51;58.57
17649;BME280;8943;51.110;-4.158;2023-10-19T00:42:10;97908.53;;;19.53;58.48
17649;BME280;8943;51.110;-4.158;2023-10-19T00:44:43;97909.81;;;19.50;58.84
17649;BME280;8943;51.110;-4.158;2023-10-19T00:47:16;97892.34;;;19.53;58.49
17649;BME280;8943;51.110;-4.158;2023-10-19T00:49:47;97897.38;;;19.49;58.79
17649;BME280;8943;51.110;-4.158;2023-10-19T00:52:26;97884.22;;;19.53;58.31
17649;BME280;8943;51.110;-4.158;2023-10-19T00:55:11;97880.38;;;19.49;58.65
17649;BME280;8943;51.110;-4.158;2023-10-19T00:57:42;97879.88;;;19.52;58.65
17649;BME280;8943;51.110;-4.158;2023-10-19T01:00:17;97876.34;;;19.51;58.40
17649;BME280;8943;51.110;-4.158;2023-10-19T01:02:58;97869.06;;;19.52;58.62
17649;BME280;8943;51.110;-4.158;2023-10-19T01:05:32;97864.50;;;19.52;58.58
17649;BME280;8943;51.110;-4.158;2023-10-19T01:08:22;97860.16;;;19.51;58.84
17649;BME280;8943;51.110;-4.158;2023-10-19T01:11:05;97860.75;;;19.53;58.87
17649;BME280;8943;51.110;-4.158;2023-10-19T01:13:44;97842.06;;;19.52;58.58
17649;BME280;8943;51.110;-4.158;2023-10-19T01:16:42;97847.97;;;19.49;58.54
17649;BME280;8943;51.110;-4.158;2023-10-19T01:19:38;97835.84;;;19.51;58.78
17649;BME280;8943;51.110;-4.158;2023-10-19T01:22:34;97826.47;;;19.54;58.64
17649;BME280;8943;51.110;-4.158;2023-10-19T01:25:10;97822.94;;;19.53;58.86
17649;BME280;8943;51.110;-4.158;2023-10-19T01:27:48;97816.22;;;19.56;58.87
17649;BME280;8943;51.110;-4.158;2023-10-19T01:30:44;97801.69;;;19.57;59.00
17649;BME280;8943;51.110;-4.158;2023-10-19T01:33:19;97800.63;;;19.58;58.96
17649;BME280;8943;51.110;-4.158;2023-10-19T01:35:50;97795.91;;;19.65;58.90
17649;BME280;8943;51.110;-4.158;2023-10-19T01:38:37;97793.78;;;19.67;58.97
17649;BME280;8943;51.110;-4.158;2023-10-19T01:41:12;97779.47;;;19.67;58.99
17649;BME280;8943;51.110;-4.158;2023-10-19T01:43:42;97774.97;;;19.72;58.88
17649;BME280;8943;51.110;-4.158;2023-10-19T01:46:13;97772.84;;;19.74;58.97
17649;BME280;8943;51.110;-4.158;2023-10-19T01:48:50;97766.63;;;19.74;58.88
17649;BME280;8943;51.110;-4.158;2023-10-19T01:51:23;97763.34;;;19.72;58.88
17649;BME280;8943;51.110;-4.158;2023-10-19T01:53:52;97755.00;;;19.73;58.84
17649;BME280;8943;51.110;-4.158;2023-10-19T01:56:27;97749.25;;;19.70;58.81
17649;BME280;8943;51.110;-4.158;2023-10-19T01:58:55;97750.66;;;19.72;58.91
17649;BME280;8943;51.110;-4.158;2023-10-19T02:01:25;97743.59;;;19.71;58.86
17649;BME280;8943;51.110;-4.158;2023-10-19T02:06:50;97724.22;;;19.74;58.99
17649;BME280;8943;51.110;-4.158;2023-10-19T02:09:21;97721.84;;;19.78;58.92
17649;BME280;8943;51.110;-4.158;2023-10-19T02:11:56;97719.47;;;19.82;59.01
17649;BME280;8943;51.110;-4.158;2023-10-19T02:14:29;97710.88;;;19.85;59.00
17649;BME280;8943;51.110;-4.158;2023-10-19T02:17:03;97708.75;;;19.87;58.82
17649;BME280;8943;51.110;-4.158;2023-10-19T02:19:38;97700.13;;;19.90;58.94
17649;BME280;8943;51.110;-4.158;2023-10-19T02:22:06;97697.94;;;19.87;58.98
17649;BME280;8943;51.110;-4.158;2023-10-19T02:24:42;97693.66;;;19.91;59.05
17649;BME280;8943;51.110;-4.158;2023-10-19T02:27:25;97687.22;;;19.92;59.07
17649;BME280;8943;51.110;-4.158;2023-10-19T02:29:59;97689.66;;;19.93;59.13
17649;BME280;8943;51.110;-4.158;2023-10-19T02:32:29;97677.53;;;19.96;59.01
17649;BME280;8943;51.110;-4.158;2023-10-19T02:35:02;97676.47;;;19.97;59.37
17649;BME280;8943;51.110;-4.158;2023-10-19T02:37:30;97679.75;;;19.99;58.93
17649;BME280;8943;51.110;-4.158;2023-10-19T02:40:00;97671.16;;;20.02;58.97
17649;BME280;8943;51.110;-4.158;2023-10-19T02:42:52;97670.34;;;20.01;59.29
17649;BME280;8943;51.110;-4.158;2023-10-19T02:48:06;97658.47;;;20.02;59.21
17649;BME280;8943;51.110;-4.158;2023-10-19T02:50:52;97656.09;;;20.06;59.17
17649;BME280;8943;51.110;-4.158;2023-10-19T02:53:21;97658.84;;;20.11;59.31
17649;BME280;8943;51.110;-4.158;2023-10-19T02:55:54;97654.34;;;20.17;59.16
17649;BME280;8943;51.110;-4.158;2023-10-19T03:37:01;97617.09;;;20.24;59.45
17649;BME280;8943;51.110;-4.158;2023-10-19T03:39:34;97621.22;;;20.26;59.09
17649;BME280;8943;51.110;-4.158;2023-10-19T03:44:50;97619.13;;;20.33;59.28
17649;BME280;8943;51.110;-4.158;2023-10-19T03:48:14;97606.69;;;20.32;59.53
17649;BME280;8943;51.110;-4.158;2023-10-19T03:51:28;97602.41;;;20.37;59.18
17649;BME280;8943;51.110;-4.158;2023-10-19T03:57:22;97595.44;;;20.41;59.29
17649;BME280;8943;51.110;-4.158;2023-10-19T04:18:15;97586.34;;;20.47;59.38
17649;BME280;8943;51.110;-4.158;2023-10-19T04:20:58;97585.84;;;20.50;59.41
17649;BME280;8943;51.110;-4.158;2023-10-19T04:23:45;97577.72;;;20.50;59.25
17649;BME280;8943;51.110;-4.158;2023-10-19T04:26:15;97576.88;;;20.49;59.29
17649;BME280;8943;51.110;-4.158;2023-10-19T04:28:56;97570.09;;;20.47;59.06
17649;BME280;8943;51.110;-4.158;2023-10-19T04:31:41;97566.81;;;20.45;59.29
17649;BME280;8943;51.110;-4.158;2023-10-19T04:34:21;97570.91;;;20.47;59.16
17649;BME280;8943;51.110;-4.158;2023-10-19T04:36:52;97571.97;;;20.46;59.47
17649;BME280;8943;51.110;-4.158;2023-10-19T04:39:35;97570.56;;;20.44;59.09
17649;BME280;8943;51.110;-4.158;2023-10-19T04:42:17;97576.06;;;20.49;59.31
17649;BME280;8943;51.110;-4.158;2023-10-19T04:44:49;97575.97;;;20.44;59.41
17649;BME280;8943;51.110;-4.158;2023-10-19T04:47:19;97568.94;;;20.43;59.58
17649;BME280;8943;51.110;-4.158;2023-10-19T04:49:55;97570.28;;;20.40;59.46
17649;BME280;8943;51.110;-4.158;2023-10-19T04:52:25;97566.44;;;20.36;59.13
17649;BME280;8943;51.110;-4.158;2023-10-19T04:54:54;97568.78;;;20.27;58.99
17649;BME280;8943;51.110;-4.158;2023-10-19T04:57:23;97572.78;;;20.25;59.38
17649;BME280;8943;51.110;-4.158;2023-10-19T04:59:54;97562.50;;;20.22;59.29
17649;BME280;8943;51.110;-4.158;2023-10-19T05:02:23;97572.50;;;20.21;59.32
17649;BME280;8943;51.110;-4.158;2023-10-19T05:04:54;97564.38;;;20.21;59.61
17649;BME280;8943;51.110;-4.158;2023-10-19T05:07:24;97569.47;;;20.18;59.63
17649;BME280;8943;51.110;-4.158;2023-10-19T05:09:56;97578.06;;;20.15;59.50
17649;BME280;8943;51.110;-4.158;2023-10-19T05:12:26;97569.97;;;20.15;59.65
17649;BME280;8943;51.110;-4.158;2023-10-19T05:14:55;97560.47;;;20.12;59.49
17649;BME280;8943;51.110;-4.158;2023-10-19T05:17:24;97568.31;;;20.14;59.63
17649;BME280;8943;51.110;-4.158;2023-10-19T05:19:56;97565.63;;;20.14;59.74
17649;BME280;8943;51.110;-4.158;2023-10-19T05:22:27;97564.00;;;20.13;59.77
17649;BME280;8943;51.110;-4.158;2023-10-19T05:24:56;97558.34;;;20.14;59.68
17649;BME280;8943;51.110;-4.158;2023-10-19T05:27:26;97560.47;;;20.12;59.51
17649;BME280;8943;51.110;-4.158;2023-10-19T05:29:55;97553.13;;;20.08;59.34
17649;BME280;8943;51.110;-4.158;2023-10-19T05:32:24;97547.97;;;20.06;59.26
17649;BME280;8943;51.110;-4.158;2023-10-19T05:34:53;97540.84;;;20.00;59.38
17649;BME280;8943;51.110;-4.158;2023-10-19T05:37:34;97540.56;;;19.96;58.89
17649;BME280;8943;51.110;-4.158;2023-10-19T05:40:04;97544.00;;;19.92;59.08
17649;BME280;8943;51.110;-4.158;2023-10-19T05:42:39;97548.78;;;19.85;58.97
17649;BME280;8943;51.110;-4.158;2023-10-19T05:45:12;97551.16;;;19.81;58.97
17649;BME280;8943;51.110;-4.158;2023-10-19T05:47:43;97544.06;;;19.75;59.05
17649;BME280;8943;51.110;-4.158;2023-10-19T05:50:12;97551.28;;;19.69;59.32
17649;BME280;8943;51.110;-4.158;2023-10-19T05:52:45;97547.69;;;19.64;59.07
17649;BME280;8943;51.110;-4.158;2023-10-19T05:55:16;97547.94;;;19.62;59.21
17649;BME280;8943;51.110;-4.158;2023-10-19T05:57:48;97547.44;;;19.65;59.63
17649;BME280;8943;51.110;-4.158;2023-10-19T06:00:22;97542.28;;;19.64;59.59
17649;BME280;8943;51.110;-4.158;2023-10-19T06:02:52;97541.78;;;19.67;59.40
17649;BME280;8943;51.110;-4.158;2023-10-19T06:05:22;97534.50;;;19.67;59.11
17649;BME280;8943;51.110;-4.158;2023-10-19T06:08:19;97528.28;;;19.67;59.20
17649;BME280;8943;51.110;-4.158;2023-10-19T06:10:51;97523.63;;;19.62;58.94
17649;BME280;8943;51.110;-4.158;2023-10-19T06:13:21;97522.47;;;19.58;59.04
17649;BME280;8943;51.110;-4.158;2023-10-19T06:15:50;97529.41;;;19.54;58.94
17649;BME280;8943;51.110;-4.158;2023-10-19T06:18:21;97526.13;;;19.52;58.99
17649;BME280;8943;51.110;-4.158;2023-10-19T06:21:05;97521.19;;;19.44;58.95
17649;BME280;8943;51.110;-4.158;2023-10-19T06:23:46;97517.91;;;19.42;58.78
17649;BME280;8943;51.110;-4.158;2023-10-19T06:26:25;97521.34;;;19.37;58.98
17649;BME280;8943;51.110;-4.158;2023-10-19T06:29:00;97521.50;;;19.30;59.02
17649;BME280;8943;51.110;-4.158;2023-10-19T06:31:31;97522.84;;;19.28;58.81
17649;BME280;8943;51.110;-4.158;2023-10-19T06:34:00;97524.97;;;19.26;59.14
17649;BME280;8943;51.110;-4.158;2023-10-19T06:36:39;97519.56;;;19.26;59.42
17649;BME280;8943;51.110;-4.158;2023-10-19T06:39:25;97519.31;;;19.27;59.49
17649;BME280;8943;51.110;-4.158;2023-10-19T06:41:56;97519.41;;;19.33;59.63
17649;BME280;8943;51.110;-4.158;2023-10-19T06:44:27;97525.91;;;19.37;59.69
17649;BME280;8943;51.110;-4.158;2023-10-19T06:47:00;97527.59;;;19.38;59.61
17649;BME280;8943;51.110;-4.158;2023-10-19T06:49:31;97523.28;;;19.42;59.65
17649;BME280;8943;51.110;-4.158;2023-10-19T06:52:01;97517.91;;;19.42;59.66
17649;BME280;8943;51.110;-4.158;2023-10-19T06:54:44;97523.88;;;19.44;59.39
17649;BME280;8943;51.110;-4.158;2023-10-19T06:57:43;97515.19;;;19.42;59.44
17649;BME280;8943;51.110;-4.158;2023-10-19T07:00:43;97514.63;;;19.40;59.42
17649;BME280;8943;51.110;-4.158;2023-10-19T07:26:57;97495.13;;;19.33;59.10
17649;BME280;8943;51.110;-4.158;2023-10-19T07:29:48;97490.28;;;19.35;59.04
17649;BME280;8943;51.110;-4.158;2023-10-19T07:32:28;97494.84;;;19.34;59.33
17649;BME280;8943;51.110;-4.158;2023-10-19T07:35:09;97481.63;;;19.33;59.19
17649;BME280;8943;51.110;-4.158;2023-10-19T07:37:56;97488.06;;;19.32;59.38
17649;BME280;8943;51.110;-4.158;2023-10-19T07:41:10;97484.88;;;19.35;59.35
17649;BME280;8943;51.110;-4.158;2023-10-19T07:49:58;97487.38;;;19.41;59.94
17649;BME280;8943;51.110;-4.158;2023-10-19T10:41:09;97432.97;;;24.48;56.83
17649;BME280;8943;51.110;-4.158;2023-10-19T10:43:57;97434.84;;;24.53;56.94
17649;BME280;8943;51.110;-4.158;2023-10-19T10:46:32;97428.25;;;24.59;56.35
17649;BME280;8943;51.110;-4.158;2023-10-19T10:49:28;97436.53;;;24.44;56.08
17649;BME280;8943;51.110;-4.158;2023-10-19T10:51:57;97429.81;;;24.36;55.87
17649;BME280;8943;51.110;-4.158;2023-10-19T10:54:27;97433.88;;;24.28;55.85
17649;BME280;8943;51.110;-4.158;2023-10-19T10:57:00;97440.41;;;24.32;55.99
17649;BME280;8943;51.110;-4.158;2023-10-19T10:59:41;97434.94;;;24.37;56.07
17649;BME280;8943;51.110;-4.158;2023-10-19T11:04:52;97441.78;;;24.69;56.07
17649;BME280;8943;51.110;-4.158;2023-10-19T11:08:36;97440.13;;;24.73;55.39
17649;BME280;8943;51.110;-4.158;2023-10-19T11:17:13;97429.44;;;23.98;54.43
17649;BME280;8943;51.110;-4.158;2023-10-19T11:20:10;97434.66;;;23.84;54.31
17649;BME280;8943;51.110;-4.158;2023-10-19T11:23:01;97421.13;;;23.74;54.50
17649;BME280;8943;51.110;-4.158;2023-10-19T11:25:35;97420.06;;;23.65;54.59
17649;BME280;8943;51.110;-4.158;2023-10-19T11:28:17;97414.09;;;23.68;54.88
17649;BME280;8943;51.110;-4.158;2023-10-19T11:31:10;97413.00;;;23.69;54.95
17649;BME280;8943;51.110;-4.158;2023-10-19T11:33:44;97417.88;;;23.77;55.26
17649;BME280;8943;51.110;-4.158;2023-10-19T11:36:14;97408.00;;;23.92;55.22
17649;BME280;8943;51.110;-4.158;2023-10-19T11:38:46;97406.84;;;24.03;55.19
17649;BME280;8943;51.110;-4.158;2023-10-19T11:41:16;97407.03;;;24.17;54.95
17649;BME280;8943;51.110;-4.158;2023-10-19T11:43:46;97398.78;;;24.32;55.04
17649;BME280;8943;51.110;-4.158;2023-10-19T11:49:05;97393.03;;;24.73;55.05
17649;BME280;8943;51.110;-4.158;2023-10-19T11:51:36;97385.25;;;24.90;54.56
17649;BME280;8943;51.110;-4.158;2023-10-19T11:54:06;97376.91;;;25.10;54.21
17649;BME280;8943;51.110;-4.158;2023-10-19T11:56:44;97364.16;;;25.30;53.94
17649;BME280;8943;51.110;-4.158;2023-10-19T11:59:27;97369.41;;;25.45;53.54
17649;BME280;8943;51.110;-4.158;2023-10-19T12:02:05;97379.84;;;25.62;53.22
17649;BME280;8943;51.110;-4.158;2023-10-19T12:04:38;97375.91;;;25.73;52.94
17649;BME280;8943;51.110;-4.158;2023-10-19T12:07:07;97380.69;;;25.81;52.91
17649;BME280;8943;51.110;-4.158;2023-10-19T12:09:37;97375.78;;;25.83;52.56
17649;BME280;8943;51.110;-4.158;2023-10-19T12:12:33;97377.97;;;25.81;52.03
17649;BME280;8943;51.110;-4.158;2023-10-19T12:15:09;97380.78;;;25.76;51.97
17649;BME280;8943;51.110;-4.158;2023-10-19T12:18:06;97382.16;;;25.74;51.69
17649;BME280;8943;51.110;-4.158;2023-10-19T12:20:50;97380.50;;;25.54;51.32
17649;BME280;8943;51.110;-4.158;2023-10-19T12:23:23;97385.59;;;25.36;51.08
17649;BME280;8943;51.110;-4.158;2023-10-19T12:26:01;97381.31;;;25.01;50.68
17649;BME280;8943;51.110;-4.158;2023-10-19T12:28:41;97389.50;;;24.72;50.16
17649;BME280;8943;51.110;-4.158;2023-10-19T12:31:16;97392.50;;;24.36;50.70
17649;BME280;8943;51.110;-4.158;2023-10-19T13:23:05;97368.59;;;23.89;54.95
17649;BME280;8943;51.110;-4.158;2023-10-19T13:25:39;97368.91;;;24.22;54.82
17649;BME280;8943;51.110;-4.158;2023-10-19T13:28:09;97365.81;;;24.38;54.27
17649;BME280;8943;51.110;-4.158;2023-10-19T13:30:45;97366.78;;;24.53;54.01
17649;BME280;8943;51.110;-4.158;2023-10-19T13:33:16;97365.13;;;24.57;53.86
17649;BME280;8943;51.110;-4.158;2023-10-19T13:35:46;97360.59;;;24.76;54.13
17649;BME280;8943;51.110;-4.158;2023-10-19T13:38:35;97359.34;;;24.92;53.82
17649;BME280;8943;51.110;-4.158;2023-10-19T13:41:15;97355.50;;;24.93;53.17
17649;BME280;8943;51.110;-4.158;2023-10-19T13:43:44;97358.69;;;24.77;52.63
17649;BME280;8943;51.110;-4.158;2023-10-19T13:46:14;97363.47;;;24.61;52.38
17649;BME280;8943;51.110;-4.158;2023-10-19T13:48:43;97363.66;;;24.35;52.84
17649;BME280;8943;51.110;-4.158;2023-10-19T13:51:16;97358.09;;;24.17;52.85
17649;BME280;8943;51.110;-4.158;2023-10-19T13:53:48;97364.66;;;24.05;53.51
17649;BME280;8943;51.110;-4.158;2023-10-19T13:56:16;97367.09;;;24.12;53.43
17649;BME280;8943;51.110;-4.158;2023-10-19T13:58:45;97360.59;;;24.08;53.77
17649;BME280;8943;51.110;-4.158;2023-10-19T14:01:15;97366.25;;;24.17;53.70
17649;BME280;8943;51.110;-4.158;2023-10-19T14:03:44;97356.13;;;24.22;53.93
17649;BME280;8943;51.110;-4.158;2023-10-19T14:06:14;97350.66;;;24.27;53.67
17649;BME280;8943;51.110;-4.158;2023-10-19T14:08:44;97347.84;;;24.43;53.61
17649;BME280;8943;51.110;-4.158;2023-10-19T14:11:16;97345.13;;;24.72;54.32
17649;BME280;8943;51.110;-4.158;2023-10-19T14:13:44;97344.63;;;24.93;54.14
17649;BME280;8943;51.110;-4.158;2023-10-19T14:16:14;97340.56;;;25.20;53.80
17649;BME280;8943;51.110;-4.158;2023-10-19T14:18:43;97341.66;;;25.43;55.38
17649;BME280;8943;51.110;-4.158;2023-10-19T14:21:26;97342.69;;;25.90;56.44
17649;BME280;8943;51.110;-4.158;2023-10-19T14:23:55;97339.75;;;26.57;54.39
17649;BME280;8943;51.110;-4.158;2023-10-19T14:26:33;97339.94;;;27.07;52.94
17649;BME280;8943;51.110;-4.158;2023-10-19T14:29:02;97340.78;;;27.62;50.19
17649;BME280;8943;51.110;-4.158;2023-10-19T14:31:30;97345.94;;;27.78;48.25
17649;BME280;8943;51.110;-4.158;2023-10-19T14:34:04;97341.91;;;27.48;46.98
17649;BME280;8943;51.110;-4.158;2023-10-19T14:36:54;97334.69;;;26.96;46.73
17649;BME280;8943;51.110;-4.158;2023-10-19T14:39:23;97332.09;;;26.73;46.76
17649;BME280;8943;51.110;-4.158;2023-10-19T14:41:56;97343.72;;;26.64;47.15
17649;BME280;8943;51.110;-4.158;2023-10-19T14:44:24;97340.53;;;26.43;46.52
17649;BME280;8943;51.110;-4.158;2023-10-19T14:46:55;97346.56;;;26.40;46.91
17649;BME280;8943;51.110;-4.158;2023-10-19T14:49:38;97346.13;;;26.33;46.61
17649;BME280;8943;51.110;-4.158;2023-10-19T14:52:06;97344.28;;;26.10;46.24
17649;BME280;8943;51.110;-4.158;2023-10-19T14:54:35;97346.91;;;25.82;46.61
17649;BME280;8943;51.110;-4.158;2023-10-19T14:57:06;97341.00;;;25.51;46.57
17649;BME280;8943;51.110;-4.158;2023-10-19T14:59:34;97338.81;;;25.29;46.80
17649;BME280;8943;51.110;-4.158;2023-10-19T15:02:04;97331.16;;;25.07;47.15
17649;BME280;8943;51.110;-4.158;2023-10-19T15:04:38;97323.94;;;24.92;47.27
17649;BME280;8943;51.110;-4.158;2023-10-19T15:07:09;97339.06;;;24.80;47.44
17649;BME280;8943;51.110;-4.158;2023-10-19T15:09:38;97330.47;;;24.67;47.74
17649;BME280;8943;51.110;-4.158;2023-10-19T15:12:08;97338.38;;;24.64;48.06
17649;BME280;8943;51.110;-4.158;2023-10-19T15:14:40;97337.41;;;24.50;48.31
17649;BME280;8943;51.110;-4.158;2023-10-19T15:17:09;97354.91;;;24.44;48.14
17649;BME280;8943;51.110;-4.158;2023-10-19T15:19:38;97351.72;;;24.31;48.31
17649;BME280;8943;51.110;-4.158;2023-10-19T15:22:06;97357.22;;;24.21;48.41
17649;BME280;8943;51.110;-4.158;2023-10-19T15:24:34;97355.63;;;24.15;48.52
17649;BME280;8943;51.110;-4.158;2023-10-19T15:27:02;97351.63;;;24.07;48.85
17649;BME280;8943;51.110;-4.158;2023-10-19T15:29:32;97353.78;;;24.05;48.60
17649;BME280;8943;51.110;-4.158;2023-10-19T15:32:00;97342.66;;;24.07;49.11
17649;BME280;8943;51.110;-4.158;2023-10-19T15:34:29;97348.84;;;24.12;49.27
17649;BME280;8943;51.110;-4.158;2023-10-19T15:37:00;97351.47;;;24.28;49.39
17649;BME280;8943;51.110;-4.158;2023-10-19T15:39:29;97347.75;;;24.53;49.90
17649;BME280;8943;51.110;-4.158;2023-10-19T15:41:57;97345.72;;;24.92;50.45
17649;BME280;8943;51.110;-4.158;2023-10-19T15:44:25;97341.94;;;25.17;51.66
17649;BME280;8943;51.110;-4.158;2023-10-19T15:46:55;97341.00;;;25.51;52.00
17649;BME280;8943;51.110;-4.158;2023-10-19T15:49:23;97334.06;;;26.02;51.60
17649;BME280;8943;51.110;-4.158;2023-10-19T15:51:52;97335.16;;;26.71;48.78
17649;BME280;8943;51.110;-4.158;2023-10-19T15:54:20;97337.59;;;26.86;47.49
17649;BME280;8943;51.110;-4.158;2023-10-19T15:56:48;97333.63;;;26.79;47.24
17649;BME280;8943;51.110;-4.158;2023-10-19T15:59:17;97340.16;;;26.64;46.66
17649;BME280;8943;51.110;-4.158;2023-10-19T16:01:45;97336.53;;;26.36;46.29
17649;BME280;8943;51.110;-4.158;2023-10-19T16:04:15;97338.84;;;26.10;46.37
17649;BME280;8943;51.110;-4.158;2023-10-19T16:06:43;97342.03;;;25.79;46.78
17649;BME280;8943;51.110;-4.158;2023-10-19T16:09:12;97334.97;;;25.54;46.27
17649;BME280;8943;51.110;-4.158;2023-10-19T16:11:40;97345.16;;;25.25;46.74
17649;BME280;8943;51.110;-4.158;2023-10-19T16:14:08;97341.91;;;24.93;46.91
17649;BME280;8943;51.110;-4.158;2023-10-19T16:16:36;97344.03;;;24.73;47.02
17649;BME280;8943;51.110;-4.158;2023-10-19T16:19:05;97353.22;;;24.48;47.31
17649;BME280;8943;51.110;-4.158;2023-10-19T16:21:37;97350.09;;;24.30;47.69
17649;BME280;8943;51.110;-4.158;2023-10-19T16:24:07;97350.19;;;24.15;47.75
17649;BME280;8943;51.110;-4.158;2023-10-19T16:26:35;97348.09;;;24.07;48.22
17649;BME280;8943;51.110;-4.158;2023-10-19T16:29:04;97346.00;;;23.94;48.17
17649;BME280;8943;51.110;-4.158;2023-10-19T16:31:34;97355.56;;;23.81;48.47
17649;BME280;8943;51.110;-4.158;2023-10-19T16:34:03;97359.72;;;23.68;48.50
17649;BME280;8943;51.110;-4.158;2023-10-19T16:36:32;97367.88;;;23.63;48.43
17649;BME280;8943;51.110;-4.158;2023-10-19T16:39:01;97361.94;;;23.51;48.62
17649;BME280;8943;51.110;-4.158;2023-10-19T16:41:30;97365.78;;;23.45;48.89
17649;BME280;8943;51.110;-4.158;2023-10-19T16:43:58;97361.19;;;23.35;49.06
17649;BME280;8943;51.110;-4.158;2023-10-19T16:46:26;97365.06;;;23.24;49.18
17649;BME280;8943;51.110;-4.158;2023-10-19T16:48:55;97363.97;;;23.20;49.22
17649;BME280;8943;51.110;-4.158;2023-10-19T16:51:23;97368.06;;;23.12;49.42
17649;BME280;8943;51.110;-4.158;2023-10-19T16:53:52;97379.75;;;23.02;49.66
17649;BME280;8943;51.110;-4.158;2023-10-19T16:56:22;97378.69;;;22.93;49.84
17649;BME280;8943;51.110;-4.158;2023-10-19T16:58:51;97376.22;;;22.86;49.71
17649;BME280;8943;51.110;-4.158;2023-10-19T17:01:22;97373.53;;;22.76;49.82
17649;BME280;8943;51.110;-4.158;2023-10-19T17:03:51;97378.69;;;22.68;50.13
17649;BME280;8943;51.110;-4.158;2023-10-19T17:06:20;97372.75;;;22.60;50.08
17649;BME280;8943;51.110;-4.158;2023-10-19T17:08:48;97374.91;;;22.53;50.33
17649;BME280;8943;51.110;-4.158;2023-10-19T17:11:17;97382.50;;;22.46;50.28
17649;BME280;8943;51.110;-4.158;2023-10-19T17:13:53;97387.66;;;22.38;50.59
17649;BME280;8943;51.110;-4.158;2023-10-19T17:16:25;97387.38;;;22.29;50.28
17649;BME280;8943;51.110;-4.158;2023-10-19T17:18:53;97386.03;;;22.21;50.49
17649;BME280;8943;51.110;-4.158;2023-10-19T17:21:22;97387.31;;;22.08;50.87
17649;BME280;8943;51.110;-4.158;2023-10-19T17:23:51;97392.44;;;22.00;51.00
17649;BME280;8943;51.110;-4.158;2023-10-19T17:26:20;97389.47;;;21.96;51.24
17649;BME280;8943;51.110;-4.158;2023-10-19T17:28:51;97386.47;;;21.88;51.44
17649;BME280;8943;51.110;-4.158;2023-10-19T17:31:20;97388.63;;;21.85;51.45
17649;BME280;8943;51.110;-4.158;2023-10-19T17:33:50;97389.97;;;21.78;51.52
17649;BME280;8943;51.110;-4.158;2023-10-19T17:36:19;97390.75;;;21.73;51.68
17649;BME280;8943;51.110;-4.158;2023-10-19T17:38:47;97391.84;;;21.67;51.71
17649;BME280;8943;51.110;-4.158;2023-10-19T17:41:16;97396.41;;;21.67;51.83
17649;BME280;8943;51.110;-4.158;2023-10-19T17:43:44;97398.03;;;21.63;51.90
17649;BME280;8943;51.110;-4.158;2023-10-19T17:46:14;97390.44;;;21.59;52.09
17649;BME280;8943;51.110;-4.158;2023-10-19T17:48:44;97398.56;;;21.59;52.33
17649;BME280;8943;51.110;-4.158;2023-10-19T17:51:14;97405.88;;;21.59;52.17
17649;BME280;8943;51.110;-4.158;2023-10-19T17:53:44;97401.56;;;21.58;52.30
17649;BME280;8943;51.110;-4.158;2023-10-19T17:56:12;97401.53;;;21.53;52.51
17649;BME280;8943;51.110;-4.158;2023-10-19T17:58:41;97410.72;;;21.52;52.57
17649;BME280;8943;51.110;-4.158;2023-10-19T18:01:10;97406.66;;;21.49;52.47
17649;BME280;8943;51.110;-4.158;2023-10-19T18:03:54;97413.41;;;21.47;52.45
17649;BME280;8943;51.110;-4.158;2023-10-19T18:08:51;97412.03;;;21.39;52.73
17649;BME280;8943;51.110;-4.158;2023-10-19T18:11:19;97411.47;;;21.37;52.70
17649;BME280;8943;51.110;-4.158;2023-10-19T18:13:48;97407.66;;;21.33;52.82
17649;BME280;8943;51.110;-4.158;2023-10-19T18:16:17;97406.00;;;21.32;52.74
17649;BME280;8943;51.110;-4.158;2023-10-19T18:18:49;97410.88;;;21.30;52.98
17649;BME280;8943;51.110;-4.158;2023-10-19T18:21:20;97403.25;;;21.27;53.13
17649;BME280;8943;51.110;-4.158;2023-10-19T18:23:48;97410.53;;;21.21;52.83
17649;BME280;8943;51.110;-4.158;2023-10-19T18:26:17;97409.44;;;21.22;52.81
17649;BME280;8943;51.110;-4.158;2023-10-19T18:28:46;97413.78;;;21.18;53.03
17649;BME280;8943;51.110;-4.158;2023-10-19T18:31:15;97415.09;;;21.11;53.14
17649;BME280;8943;51.110;-4.158;2023-10-19T18:33:44;97418.06;;;21.09;52.97
17649;BME280;8943;51.110;-4.158;2023-10-19T18:36:12;97420.47;;;21.05;53.08
17649;BME280;8943;51.110;-4.158;2023-10-19T18:38:43;97414.22;;;21.00;53.34
17649;BME280;8943;51.110;-4.158;2023-10-19T18:41:12;97418.25;;;20.97;53.24
17649;BME280;8943;51.110;-4.158;2023-10-19T18:43:41;97416.63;;;20.96;53.43
17649;BME280;8943;51.110;-4.158;2023-10-19T18:46:12;97415.00;;;20.95;53.50
17649;BME280;8943;51.110;-4.158;2023-10-19T18:48:43;97403.34;;;20.95;53.50
17649;BME280;8943;51.110;-4.158;2023-10-19T18:51:12;97406.56;;;20.92;53.72
17649;BME280;8943;51.110;-4.158;2023-10-19T18:53:41;97404.94;;;20.91;53.56
17649;BME280;8943;51.110;-4.158;2023-10-19T18:56:11;97403.84;;;20.87;53.45
17649;BME280;8943;51.110;-4.158;2023-10-19T18:58:41;97408.94;;;20.83;53.53
17649;BME280;8943;51.110;-4.158;2023-10-19T19:01:09;97398.09;;;20.78;53.46
17649;BME280;8943;51.110;-4.158;2023-10-19T19:03:38;97400.50;;;20.74;53.61
17649;BME280;8943;51.110;-4.158;2023-10-19T19:06:06;97401.53;;;20.68;53.59